Terminal Aerodrome Forecast
Issued by NWS Billings, MT

Home | Current Version | Previous Version | Text Only | Print | Product List | Glossary On
Versions: 1 2 3 4 5 6 7 8 9 10 11 12 13 14 15 16 17 18 19 20 21 22 23 24
000
FTUS45 KBYZ 040520
TAFBIL
TAF
KBIL 040520Z 0406/0506 26011KT P6SM FEW090 BKN200
     FM040800 VRB06KT P6SM FEW090 BKN150
     FM041100 27009KT P6SM VCSH BKN080
     FM041700 31014G21KT P6SM -SHRA VCTS BKN060CB
     FM050300 35011KT P6SM VCSH SCT070 BKN100=

USA.gov is the U.S. government's official web portal to all federal, state and local government web resources and services.